Time;durP1;ratioP1;P1;durP2;ratioP2;P2;SDS_P1;SDS_P2;PMS_P1;PMS_P2;Temp;Humidity;BMP_temperature;BMP_pressure;BME280_temperature;BME280_humidity;BME280_pressure;Samples;Min_cycle;Max_cycle;Signal;HPM_P1;HPM_P2
2022/12/02 00:01:17;;;;;;;55.95;21.52;;;;;;;-144.57;100.00;62443.72;4937644;29;20050;-73
2022/12/02 00:03:43;;;;;;;53.42;21.73;;;;;;;-144.57;100.00;62443.72;4954900;29;20631;-73
2022/12/02 00:06:14;;;;;;;53.60;22.77;;;;;;;-144.57;100.00;62443.72;4937924;29;20055;-72
2022/12/02 00:08:40;;;;;;;50.38;22.25;;;;;;;-144.57;100.00;62443.72;4922023;29;20065;-72
2022/12/02 00:11:28;;;;;;;56.30;23.20;;;;;;;-144.57;100.00;62443.72;4906254;29;20134;-72
2022/12/02 00:14:14;;;;;;;48.88;22.00;;;;;;;-144.57;100.00;62443.72;4906509;29;20093;-72
2022/12/02 00:16:39;;;;;;;58.40;23.58;;;;;;;-144.57;100.00;62443.72;4921873;29;20057;-73
2022/12/02 00:19:05;;;;;;;47.80;22.90;;;;;;;-144.57;100.00;62443.72;4937545;29;20055;-72
2022/12/02 00:21:31;;;;;;;52.33;22.60;;;;;;;-144.57;100.00;62443.72;4937056;29;20043;-72
2022/12/02 00:23:56;;;;;;;58.30;22.95;;;;;;;-144.57;100.00;62443.72;4921621;29;20047;-71
2022/12/02 00:26:23;;;;;;;52.47;23.55;;;;;;;-144.57;100.00;62443.72;4954908;29;20519;-72
2022/12/02 00:28:49;;;;;;;56.65;23.10;;;;;;;-144.57;100.00;62443.72;4905765;29;20493;-72
2022/12/02 00:31:15;;;;;;;56.40;22.55;;;;;;;-144.57;100.00;62443.72;4937249;29;20102;-72
2022/12/02 00:33:40;;;;;;;54.17;23.10;;;;;;;-144.57;100.00;62443.72;4921456;29;20420;-72
2022/12/02 00:36:06;;;;;;;54.95;23.65;;;;;;;-144.57;100.00;62443.72;4936991;29;20057;-71
2022/12/02 00:38:32;;;;;;;54.35;21.83;;;;;;;-144.57;100.00;62443.72;4937198;29;20085;-73
2022/12/02 00:40:59;;;;;;;52.78;21.58;;;;;;;-144.57;100.00;62443.72;4905825;29;20035;-72
2022/12/02 00:48:54;;;;;;;56.83;22.55;;;;;;;-144.57;100.00;62443.72;4924028;29;20130;-71
2022/12/02 00:51:20;;;;;;;52.75;22.58;;;;;;;-144.57;100.00;62443.72;4921096;29;20609;-71
2022/12/02 00:53:46;;;;;;;59.35;23.00;;;;;;;-144.57;100.00;62443.72;4937180;29;20050;-72
2022/12/02 00:56:12;;;;;;;62.65;23.98;;;;;;;-144.57;100.00;62443.72;4889925;29;20055;-72
2022/12/02 00:58:38;;;;;;;67.63;26.17;;;;;;;-144.57;100.00;62443.72;4920912;29;20050;-73
2022/12/02 01:01:04;;;;;;;64.57;27.17;;;;;;;-144.57;100.00;62443.72;4936687;29;20058;-71
2022/12/02 01:03:30;;;;;;;59.03;24.85;;;;;;;-144.57;100.00;62443.72;4936675;29;20055;-72
2022/12/02 01:05:56;;;;;;;47.95;21.33;;;;;;;-144.57;100.00;62443.72;4936358;29;20051;-71
2022/12/02 01:08:26;;;;;;;50.17;24.02;;;;;;;-144.57;100.00;62443.72;4905088;29;20134;-72
2022/12/02 01:10:52;;;;;;;61.40;25.60;;;;;;;-144.57;100.00;62443.72;4937252;29;20090;-72
2022/12/02 01:13:19;;;;;;;58.92;25.00;;;;;;;-144.57;100.00;62443.72;4936428;29;20043;-72
2022/12/02 01:15:45;;;;;;;51.97;24.08;;;;;;;-144.57;100.00;62443.72;4936640;29;20054;-72
2022/12/02 01:18:11;;;;;;;53.35;24.25;;;;;;;-144.57;100.00;62443.72;4920796;29;20054;-73
2022/12/02 01:20:37;;;;;;;55.28;22.95;;;;;;;-144.57;100.00;62443.72;4936505;29;20098;-72
2022/12/02 01:23:03;;;;;;;57.50;24.27;;;;;;;-144.57;100.00;62443.72;4936320;29;20051;-72
2022/12/02 01:25:29;;;;;;;66.18;25.75;;;;;;;-144.57;100.00;62443.72;4953703;29;20047;-72
2022/12/02 01:27:56;;;;;;;60.13;26.52;;;;;;;-144.57;100.00;62443.72;4920650;29;20093;-73
2022/12/02 01:30:22;;;;;;;69.00;27.48;;;;;;;-144.57;100.00;62443.72;4936360;29;20209;-72
2022/12/02 01:32:48;;;;;;;62.88;26.05;;;;;;;-144.57;100.00;62443.72;4935498;29;20533;-73
2022/12/02 01:35:13;;;;;;;55.05;23.40;;;;;;;-144.57;100.00;62443.72;4936324;29;20134;-72
2022/12/02 01:37:39;;;;;;;58.50;25.77;;;;;;;-144.57;100.00;62443.72;4904418;29;20402;-73
2022/12/02 01:40:07;;;;;;;58.55;22.88;;;;;;;-144.57;100.00;62443.72;4936018;29;20039;-72
2022/12/02 01:42:33;;;;;;;60.10;24.45;;;;;;;-144.57;100.00;62443.72;4936547;29;20059;-72
2022/12/02 01:44:59;;;;;;;54.67;25.15;;;;;;;-144.57;100.00;62443.72;4920526;29;20050;-74
2022/12/02 01:47:25;;;;;;;61.10;25.58;;;;;;;-144.57;100.00;62443.72;4936249;29;20194;-73
2022/12/02 01:49:53;;;;;;;56.60;24.63;;;;;;;-144.57;100.00;62443.72;4905208;29;20043;-72
2022/12/02 01:52:19;;;;;;;58.85;24.65;;;;;;;-144.57;100.00;62443.72;4920321;29;20059;-73
2022/12/02 01:54:45;;;;;;;59.78;26.27;;;;;;;-144.57;100.00;62443.72;4936629;29;20043;-72
2022/12/02 01:57:12;;;;;;;61.55;26.45;;;;;;;-144.57;100.00;62443.72;4955199;29;20055;-72
2022/12/02 01:59:40;;;;;;;56.55;23.33;;;;;;;-144.57;100.00;62443.72;4938687;29;20050;-72
2022/12/02 02:02:24;;;;;;;56.15;25.50;;;;;;;-144.57;100.00;62443.72;4938916;29;20056;-72
2022/12/02 02:04:52;;;;;;;56.88;26.70;;;;;;;-144.57;100.00;62443.72;4938064;29;20424;-72
2022/12/02 02:07:18;;;;;;;55.95;24.00;;;;;;;-144.57;100.00;62443.72;4905795;29;20051;-71
2022/12/02 02:09:44;;;;;;;61.35;25.50;;;;;;;-144.57;100.00;62443.72;4938803;29;20047;-75
2022/12/02 02:12:10;;;;;;;72.72;28.30;;;;;;;-144.57;100.00;62443.72;4936356;29;20055;-72
2022/12/02 02:14:35;;;;;;;66.95;26.48;;;;;;;-144.57;100.00;62443.72;4936018;29;20473;-72
2022/12/02 02:17:02;;;;;;;62.97;26.42;;;;;;;-144.57;100.00;62443.72;4936075;29;20552;-72
2022/12/02 02:19:28;;;;;;;70.35;27.23;;;;;;;-144.57;100.00;62443.72;4920247;29;20043;-72
2022/12/02 02:21:55;;;;;;;69.90;29.60;;;;;;;-144.57;100.00;62443.72;4936090;29;20347;-72
2022/12/02 02:24:23;;;;;;;55.72;23.38;;;;;;;-144.57;100.00;62443.72;4920214;29;20143;-72
2022/12/02 02:26:49;;;;;;;66.65;27.23;;;;;;;-144.57;100.00;62443.72;4935697;29;20066;-73
2022/12/02 02:29:15;;;;;;;67.03;26.95;;;;;;;-144.57;100.00;62443.72;4888794;29;20047;-72
2022/12/02 02:31:42;;;;;;;66.78;28.38;;;;;;;-144.57;100.00;62443.72;4935977;29;20046;-73
2022/12/02 02:34:08;;;;;;;61.30;26.15;;;;;;;-144.57;100.00;62443.72;4935727;29;20078;-73
2022/12/02 02:36:34;;;;;;;60.03;27.67;;;;;;;-144.57;100.00;62443.72;4935780;29;20077;-72
2022/12/02 02:39:02;;;;;;;67.88;28.80;;;;;;;-144.57;100.00;62443.72;4904661;29;20055;-72
2022/12/02 02:41:29;;;;;;;69.32;28.67;;;;;;;-144.57;100.00;62443.72;4904015;29;20050;-73
2022/12/02 02:43:55;;;;;;;62.70;28.10;;;;;;;-144.57;100.00;62443.72;4936750;29;20047;-72
2022/12/02 02:46:21;;;;;;;59.92;27.88;;;;;;;-144.57;100.00;62443.72;4923577;29;20110;-71
2022/12/02 02:48:48;;;;;;;54.10;26.38;;;;;;;-144.57;100.00;62443.72;4939224;29;20043;-73
2022/12/02 02:51:14;;;;;;;63.40;27.58;;;;;;;-144.57;100.00;62443.72;4923349;29;20055;-72
2022/12/02 02:53:40;;;;;;;58.05;24.75;;;;;;;-144.57;100.00;62443.72;4923097;29;20536;-71
2022/12/02 02:56:08;;;;;;;54.60;24.38;;;;;;;-144.57;100.00;62443.72;4938623;29;20129;-72
2022/12/02 02:58:35;;;;;;;56.55;26.60;;;;;;;-144.57;100.00;62443.72;4907505;29;20044;-72
2022/12/02 03:01:10;;;;;;;65.68;28.02;;;;;;;-144.57;100.00;62443.72;4938990;29;20063;-72
2022/12/02 03:03:42;;;;;;;56.00;27.70;;;;;;;-144.57;100.00;62443.72;4924023;29;20048;-72
2022/12/02 03:06:09;;;;;;;57.83;26.88;;;;;;;-144.57;100.00;62443.72;4892186;29;20590;-73
2022/12/02 03:08:35;;;;;;;57.20;26.45;;;;;;;-144.57;100.00;62443.72;4907504;29;20174;-73
2022/12/02 03:11:03;;;;;;;55.78;24.67;;;;;;;-144.57;100.00;62443.72;4891720;29;20058;-72
2022/12/02 03:13:30;;;;;;;55.38;26.13;;;;;;;-144.57;100.00;62443.72;4956257;29;20047;-73
2022/12/02 03:15:56;;;;;;;53.97;24.45;;;;;;;-144.57;100.00;62443.72;4938680;29;20118;-73
2022/12/02 03:18:22;;;;;;;63.92;25.65;;;;;;;-144.57;100.00;62443.72;4955936;29;20055;-73
2022/12/02 03:20:47;;;;;;;57.35;25.83;;;;;;;-144.57;100.00;62443.72;4938771;29;20046;-73
2022/12/02 03:23:13;;;;;;;57.45;25.33;;;;;;;-144.57;100.00;62443.72;4891442;29;20057;-72
2022/12/02 03:25:39;;;;;;;64.30;26.75;;;;;;;-144.57;100.00;62443.72;4907143;29;20039;-71
2022/12/02 03:28:05;;;;;;;62.50;25.70;;;;;;;-144.57;100.00;62443.72;4922467;29;20047;-72
2022/12/02 03:30:31;;;;;;;63.03;25.35;;;;;;;-144.57;100.00;62443.72;4938519;29;20135;-73
2022/12/02 03:32:57;;;;;;;49.45;22.20;;;;;;;-144.57;100.00;62443.72;4922502;29;20047;-72
2022/12/02 03:35:23;;;;;;;59.65;23.70;;;;;;;-144.57;100.00;62443.72;4955568;29;20049;-72
2022/12/02 03:37:49;;;;;;;64.00;26.73;;;;;;;-144.57;100.00;62443.72;4922260;29;20424;-72
2022/12/02 03:40:15;;;;;;;56.28;24.08;;;;;;;-144.57;100.00;62443.72;4938543;29;20043;-73
2022/12/02 03:42:41;;;;;;;60.53;22.83;;;;;;;-144.57;100.00;62443.72;4938151;29;20062;-72
2022/12/02 03:45:08;;;;;;;56.88;24.15;;;;;;;-144.57;100.00;62443.72;4922377;29;20043;-72
2022/12/02 03:47:33;;;;;;;46.00;23.25;;;;;;;-144.57;100.00;62443.72;4922217;29;20162;-73
2022/12/02 03:49:59;;;;;;;56.28;23.73;;;;;;;-144.57;100.00;62443.72;4922559;29;20553;-73
2022/12/02 03:52:25;;;;;;;47.83;22.38;;;;;;;-144.57;100.00;62443.72;4890885;29;20051;-73
2022/12/02 03:54:51;;;;;;;40.10;18.80;;;;;;;-144.57;100.00;62443.72;4921693;28;20043;-73
2022/12/02 03:57:17;;;;;;;53.63;23.75;;;;;;;-144.57;100.00;62443.72;4905612;29;20247;-72
2022/12/02 03:59:42;;;;;;;57.40;23.67;;;;;;;-144.57;100.00;62443.72;4922067;29;22190;-72
2022/12/02 04:02:09;;;;;;;56.25;23.30;;;;;;;-144.57;100.00;62443.72;4955044;29;20414;-72
2022/12/02 04:04:34;;;;;;;49.72;24.52;;;;;;;-144.57;100.00;62443.72;4955053;29;20043;-72
2022/12/02 04:07:00;;;;;;;46.45;21.90;;;;;;;-144.57;100.00;62443.72;4922046;29;20059;-73
2022/12/02 04:09:26;;;;;;;54.30;24.52;;;;;;;-144.57;100.00;62443.72;4938059;29;20420;-73
2022/12/02 04:11:52;;;;;;;60.75;25.73;;;;;;;-144.57;100.00;62443.72;4906368;29;20539;-73
2022/12/02 04:14:17;;;;;;;47.85;23.33;;;;;;;-144.57;100.00;62443.72;4937858;29;20077;-71
2022/12/02 04:16:43;;;;;;;60.20;26.13;;;;;;;-144.57;100.00;62443.72;4955102;29;20105;-71
2022/12/02 04:19:09;;;;;;;62.45;26.45;;;;;;;-144.57;100.00;62443.72;4955005;29;20182;-72
2022/12/02 04:21:35;;;;;;;53.63;24.02;;;;;;;-144.57;100.00;62443.72;4937569;29;20058;-72
2022/12/02 04:24:01;;;;;;;47.40;23.02;;;;;;;-144.57;100.00;62443.72;4921817;29;20043;-73
2022/12/02 04:26:26;;;;;;;50.97;22.63;;;;;;;-144.57;100.00;62443.72;4921706;29;20050;-71
2022/12/02 04:28:52;;;;;;;51.75;22.95;;;;;;;-144.57;100.00;62443.72;4921700;29;20175;-72
2022/12/02 04:31:18;;;;;;;56.63;23.10;;;;;;;-144.57;100.00;62443.72;4954978;29;20126;-73
2022/12/02 04:33:44;;;;;;;50.53;23.42;;;;;;;-144.57;100.00;62443.72;4954583;29;20039;-73
2022/12/02 04:36:09;;;;;;;50.63;22.77;;;;;;;-144.57;100.00;62443.72;4954728;29;20042;-72
2022/12/02 04:38:35;;;;;;;56.65;25.30;;;;;;;-144.57;100.00;62443.72;4954628;29;20098;-73
2022/12/02 04:41:01;;;;;;;53.85;23.83;;;;;;;-144.57;100.00;62443.72;4921253;29;20039;-73
2022/12/02 04:43:27;;;;;;;50.40;24.38;;;;;;;-144.57;100.00;62443.72;4890032;29;20043;-73
2022/12/02 04:45:53;;;;;;;56.53;24.40;;;;;;;-144.57;100.00;62443.72;4921277;29;20047;-73
2022/12/02 04:48:19;;;;;;;56.30;24.63;;;;;;;-144.57;100.00;62443.72;4921239;29;20050;-72
2022/12/02 04:50:44;;;;;;;59.80;25.55;;;;;;;-144.57;100.00;62443.72;4936270;29;20098;-72
2022/12/02 04:53:10;;;;;;;56.78;23.70;;;;;;;-144.57;100.00;62443.72;4954011;29;20051;-73
2022/12/02 04:55:36;;;;;;;56.08;24.38;;;;;;;-144.57;100.00;62443.72;4933221;29;20048;-73
2022/12/02 04:58:02;;;;;;;60.97;25.10;;;;;;;-144.57;100.00;62443.72;4933403;29;20058;-72
2022/12/02 05:00:27;;;;;;;60.40;26.50;;;;;;;-144.57;100.00;62443.72;4933553;29;20409;-72
2022/12/02 05:02:53;;;;;;;59.30;25.90;;;;;;;-144.57;100.00;62443.72;4917559;29;20054;-71
2022/12/02 05:05:19;;;;;;;66.60;24.73;;;;;;;-144.57;100.00;62443.72;4934576;29;20046;-72
2022/12/02 05:07:44;;;;;;;55.53;25.00;;;;;;;-144.57;100.00;62443.72;4933204;29;20047;-70
2022/12/02 05:10:10;;;;;;;53.55;22.27;;;;;;;-144.57;100.00;62443.72;4933457;29;20051;-71
2022/12/02 05:12:36;;;;;;;58.88;25.33;;;;;;;-144.57;100.00;62443.72;4933561;29;20054;-73
2022/12/02 05:15:01;;;;;;;56.40;24.17;;;;;;;-144.57;100.00;62443.72;4933464;29;20042;-72
2022/12/02 05:17:29;;;;;;;50.65;24.35;;;;;;;-144.57;100.00;62443.72;4933313;29;20047;-73
2022/12/02 05:19:55;;;;;;;49.65;22.58;;;;;;;-144.57;100.00;62443.72;4901699;29;20546;-72
2022/12/02 05:22:21;;;;;;;48.78;22.13;;;;;;;-144.57;100.00;62443.72;4933212;29;20040;-73
2022/12/02 05:24:47;;;;;;;56.67;24.80;;;;;;;-144.57;100.00;62443.72;4916812;29;20036;-72
2022/12/02 05:27:15;;;;;;;54.08;24.25;;;;;;;-144.57;100.00;62443.72;4933060;29;20044;-71
2022/12/02 05:29:41;;;;;;;55.28;24.50;;;;;;;-144.57;100.00;62443.72;4934439;29;20043;-70
2022/12/02 05:32:08;;;;;;;50.30;22.73;;;;;;;-144.57;100.00;62443.72;4934413;29;20482;-71
2022/12/02 05:34:34;;;;;;;52.33;24.73;;;;;;;-144.57;100.00;62443.72;4934488;29;20098;-70
2022/12/02 05:36:59;;;;;;;58.40;26.92;;;;;;;-144.57;100.00;62443.72;4932656;29;20092;-70
2022/12/02 05:39:25;;;;;;;61.10;27.83;;;;;;;-144.57;100.00;62443.72;4933038;29;20051;-70
2022/12/02 05:41:51;;;;;;;55.05;26.13;;;;;;;-144.57;100.00;62443.72;4934196;29;20044;-70
2022/12/02 05:44:19;;;;;;;52.92;24.50;;;;;;;-144.57;100.00;62443.72;4934205;29;20039;-71
2022/12/02 05:46:45;;;;;;;51.63;25.58;;;;;;;-144.57;100.00;62443.72;4934625;29;20058;-70
2022/12/02 05:49:20;;;;;;;54.92;24.73;;;;;;;-144.57;100.00;62443.72;4933114;29;20453;-71
2022/12/02 05:51:57;;;;;;;60.92;22.30;;;;;;;-144.57;100.00;62443.72;4933054;29;20075;-72
2022/12/02 05:54:24;;;;;;;53.63;22.38;;;;;;;-144.57;100.00;62443.72;4934192;29;20433;-71
2022/12/02 05:56:50;;;;;;;52.40;23.25;;;;;;;-144.57;100.00;62443.72;4932652;29;20064;-71
2022/12/02 05:59:17;;;;;;;57.05;23.98;;;;;;;-144.57;100.00;62443.72;4932948;29;20039;-69
2022/12/02 06:01:56;;;;;;;54.80;22.63;;;;;;;-144.57;100.00;62443.72;4933023;29;20094;-70
2022/12/02 06:04:24;;;;;;;57.60;23.70;;;;;;;-144.57;100.00;62443.72;4933179;29;20099;-70
2022/12/02 06:06:52;;;;;;;48.47;21.45;;;;;;;-144.57;100.00;62443.72;4901568;29;20051;-70
2022/12/02 06:09:23;;;;;;;60.35;24.73;;;;;;;-144.57;100.00;62443.72;4933032;29;20050;-69
2022/12/02 06:11:49;;;;;;;53.63;20.50;;;;;;;-144.57;100.00;62443.72;4932689;29;20051;-69
2022/12/02 06:14:20;;;;;;;52.45;21.80;;;;;;;-144.57;100.00;62443.72;4917019;29;20123;-71
2022/12/02 06:16:48;;;;;;;61.15;21.85;;;;;;;-144.57;100.00;62443.72;4915285;29;20342;-70
2022/12/02 06:19:21;;;;;;;55.28;22.20;;;;;;;-144.57;100.00;62443.72;4915369;29;20055;-72
2022/12/02 06:21:47;;;;;;;50.83;23.00;;;;;;;-144.57;100.00;62443.72;4920668;29;20199;-70
2022/12/02 06:24:13;;;;;;;61.08;22.70;;;;;;;-144.57;100.00;62443.72;4937749;29;20135;-69
2022/12/02 06:26:38;;;;;;;56.25;21.42;;;;;;;-144.57;100.00;62443.72;4937695;29;20089;-72
2022/12/02 06:29:04;;;;;;;49.30;22.52;;;;;;;-144.57;100.00;62443.72;4936369;29;20065;-71
2022/12/02 06:31:36;;;;;;;59.42;22.27;;;;;;;-144.57;100.00;62443.72;4905307;29;20300;-71
2022/12/02 06:34:36;;;;;;;49.30;21.60;;;;;;;-144.57;100.00;62443.72;4936672;29;20040;-68
2022/12/02 06:37:12;;;;;;;49.03;22.25;;;;;;;-144.57;100.00;62443.72;4936026;29;20048;-73
2022/12/02 06:39:39;;;;;;;47.97;21.58;;;;;;;-144.57;100.00;62443.72;4920209;29;20054;-71
2022/12/02 06:42:29;;;;;;;51.53;21.42;;;;;;;-144.57;100.00;62443.72;4937153;29;20056;-66
2022/12/02 06:45:05;;;;;;;46.28;21.73;;;;;;;-144.57;100.00;62443.72;4920355;29;20098;-67
2022/12/02 06:47:36;;;;;;;41.92;20.35;;;;;;;-144.57;100.00;62443.72;4920386;29;20055;-66
2022/12/02 06:50:05;;;;;;;53.63;22.55;;;;;;;-144.57;100.00;62443.72;4920175;29;20039;-69
2022/12/02 06:52:37;;;;;;;52.35;23.33;;;;;;;-144.57;100.00;62443.72;4935741;29;20787;-65
2022/12/02 06:55:31;;;;;;;50.33;23.17;;;;;;;-144.57;100.00;62443.72;4920872;29;20051;-70
2022/12/02 06:58:19;;;;;;;47.05;21.20;;;;;;;-144.57;100.00;62443.72;4922608;29;20055;-70
2022/12/02 07:00:45;;;;;;;60.97;22.75;;;;;;;-144.57;100.00;62443.72;4938982;29;20504;-69
2022/12/02 07:03:30;;;;;;;53.97;23.95;;;;;;;-144.57;100.00;62443.72;4922867;29;20083;-67
2022/12/02 07:06:28;;;;;;;51.28;22.77;;;;;;;-144.57;100.00;62443.72;4938825;29;20143;-67
2022/12/02 07:08:56;;;;;;;60.55;23.45;;;;;;;-144.57;100.00;62443.72;4902614;29;20512;-69
2022/12/02 07:14:42;;;;;;;51.33;21.23;;;;;;;-144.57;100.00;62443.72;4924156;29;20051;-66
2022/12/02 07:17:29;;;;;;;43.38;17.83;;;;;;;-144.57;100.00;62443.72;4936864;29;20043;-66
2022/12/02 07:20:04;;;;;;;42.17;19.38;;;;;;;-144.57;100.00;62443.72;4921773;29;21067;-68
2022/12/02 07:22:40;;;;;;;49.67;24.05;;;;;;;-144.57;100.00;62443.72;4938082;29;20400;-68
2022/12/02 07:25:08;;;;;;;44.90;22.13;;;;;;;-144.57;100.00;62443.72;4955251;29;20553;-69
2022/12/02 07:27:39;;;;;;;50.85;24.15;;;;;;;-144.57;100.00;62443.72;4937708;29;20042;-69
2022/12/02 07:30:31;;;;;;;49.90;22.20;;;;;;;-144.57;100.00;62443.72;4936983;28;20467;-67
2022/12/02 07:32:58;;;;;;;44.75;22.75;;;;;;;-144.57;100.00;62443.72;4955608;29;20094;-67
2022/12/02 07:35:24;;;;;;;45.72;22.30;;;;;;;-144.57;100.00;62443.72;4922674;29;20074;-65
2022/12/02 07:37:50;;;;;;;50.72;23.35;;;;;;;-144.57;100.00;62443.72;4954903;29;20043;-68
2022/12/02 07:40:16;;;;;;;39.78;18.05;;;;;;;-144.57;100.00;62443.72;4938215;29;20098;-73
2022/12/02 07:42:43;;;;;;;53.40;24.27;;;;;;;-144.57;100.00;62443.72;4921589;29;20043;-74
2022/12/02 07:45:09;;;;;;;48.15;23.83;;;;;;;-144.57;100.00;62443.72;4955410;29;20373;-75
2022/12/02 07:47:35;;;;;;;54.75;24.40;;;;;;;-144.57;100.00;62443.72;4937955;29;20044;-75
2022/12/02 07:50:02;;;;;;;51.58;23.45;;;;;;;-144.57;100.00;62443.72;4955492;29;20386;-71
2022/12/02 07:52:28;;;;;;;56.08;20.80;;;;;;;-144.57;100.00;62443.72;4937406;29;20135;-77
2022/12/02 07:54:54;;;;;;;56.17;24.58;;;;;;;-144.57;100.00;62443.72;4921470;29;20121;-76
2022/12/02 07:57:22;;;;;;;64.35;24.60;;;;;;;-144.57;100.00;62443.72;4921310;29;20050;-75
2022/12/02 07:59:49;;;;;;;45.65;24.80;;;;;;;-144.57;100.00;62443.72;4921447;29;20058;-76
2022/12/02 08:02:16;;;;;;;46.08;19.42;;;;;;;-144.57;100.00;62443.72;4921659;29;20531;-77
2022/12/02 08:04:43;;;;;;;56.63;23.23;;;;;;;-144.57;100.00;62443.72;4920452;29;20075;-76
2022/12/02 08:07:10;;;;;;;51.92;25.75;;;;;;;-144.57;100.00;62443.72;4919167;29;20137;-77
2022/12/02 08:09:36;;;;;;;52.13;23.80;;;;;;;-144.57;100.00;62443.72;4937086;29;20220;-75
2022/12/02 08:12:02;;;;;;;64.75;26.20;;;;;;;-144.57;100.00;62443.72;4921299;29;20082;-75
2022/12/02 08:14:27;;;;;;;45.67;21.42;;;;;;;-144.57;100.00;62443.72;4936849;29;20047;-75
2022/12/02 08:16:53;;;;;;;57.47;24.80;;;;;;;-144.57;100.00;62443.72;4905156;29;20398;-74
2022/12/02 08:19:18;;;;;;;54.38;25.33;;;;;;;-144.57;100.00;62443.72;4954289;29;20074;-69
2022/12/02 08:21:44;;;;;;;55.50;26.63;;;;;;;-144.57;100.00;62443.72;4937216;29;20418;-74
2022/12/02 08:24:10;;;;;;;50.08;22.15;;;;;;;-144.57;100.00;62443.72;4936942;29;20085;-73
2022/12/02 08:26:36;;;;;;;56.80;24.75;;;;;;;-144.57;100.00;62443.72;4921089;29;20073;-72
2022/12/02 08:29:03;;;;;;;50.08;24.15;;;;;;;-144.57;100.00;62443.72;4920423;29;20035;-73
2022/12/02 08:31:28;;;;;;;58.92;26.20;;;;;;;-144.57;100.00;62443.72;4905632;29;20043;-73
2022/12/02 08:33:54;;;;;;;60.60;27.20;;;;;;;-144.57;100.00;62443.72;4920452;29;20050;-74
2022/12/02 08:36:20;;;;;;;62.17;26.08;;;;;;;-144.57;100.00;62443.72;4936863;29;20046;-74
2022/12/02 08:38:46;;;;;;;57.88;25.95;;;;;;;-144.57;100.00;62443.72;4936738;29;20054;-74
2022/12/02 08:41:13;;;;;;;66.55;27.58;;;;;;;-144.57;100.00;62443.72;4936474;28;20031;-72
2022/12/02 08:43:38;;;;;;;55.33;24.23;;;;;;;-144.57;100.00;62443.72;4953677;29;20050;-74
2022/12/02 08:46:05;;;;;;;56.10;25.27;;;;;;;-144.57;100.00;62443.72;4920336;29;20085;-75
2022/12/02 08:48:31;;;;;;;52.08;23.08;;;;;;;-144.57;100.00;62443.72;4936514;29;20047;-73
2022/12/02 08:51:00;;;;;;;68.30;28.05;;;;;;;-144.57;100.00;62443.72;4936986;29;20057;-76
2022/12/02 08:53:26;;;;;;;64.53;25.13;;;;;;;-144.57;100.00;62443.72;4921216;29;20039;-74
2022/12/02 08:55:51;;;;;;;55.58;26.88;;;;;;;-144.57;100.00;62443.72;4936303;29;20059;-74
2022/12/02 08:58:17;;;;;;;66.70;27.90;;;;;;;-144.57;100.00;62443.72;4920316;29;20043;-74
2022/12/02 09:00:44;;;;;;;58.78;28.42;;;;;;;-144.57;100.00;62443.72;4921277;29;20051;-74
2022/12/02 09:03:10;;;;;;;64.68;27.10;;;;;;;-144.57;100.00;62443.72;4905323;29;20413;-77
2022/12/02 09:05:37;;;;;;;53.80;25.30;;;;;;;-144.57;100.00;62443.72;4921029;29;20117;-75
2022/12/02 09:08:03;;;;;;;72.05;26.23;;;;;;;-144.57;100.00;62443.72;4936688;29;20504;-77
2022/12/02 09:10:30;;;;;;;56.03;25.67;;;;;;;-144.57;100.00;62443.72;4936729;29;20043;-76
2022/12/02 09:12:56;;;;;;;60.08;26.67;;;;;;;-144.57;100.00;62443.72;4920565;29;20050;-75
2022/12/02 09:15:24;;;;;;;55.47;27.63;;;;;;;-144.57;100.00;62443.72;4936745;29;20050;-73
2022/12/02 09:17:52;;;;;;;;;;;;;;;-144.57;100.00;62443.72;4905739;29;20059;-75
2022/12/02 09:20:19;;;;;;;54.55;24.17;;;;;;;-144.57;100.00;62443.72;4904708;29;20028;-76
2022/12/02 09:22:48;;;;;;;59.85;26.38;;;;;;;-144.57;100.00;62443.72;4953109;29;20122;-74
2022/12/02 09:25:18;;;;;;;55.10;22.67;;;;;;;-144.57;100.00;62443.72;4904967;29;20072;-74
2022/12/02 09:27:44;;;;;;;53.55;24.45;;;;;;;-144.57;100.00;62443.72;4888639;29;20055;-75
2022/12/02 09:30:10;;;;;;;60.75;25.77;;;;;;;-144.57;100.00;62443.72;4953215;29;20043;-76
2022/12/02 09:32:36;;;;;;;62.65;24.67;;;;;;;-144.57;100.00;62443.72;4936102;29;20507;-76
2022/12/02 09:35:03;;;;;;;59.95;26.33;;;;;;;-144.57;100.00;62443.72;4920566;29;20126;-76
2022/12/02 09:37:29;;;;;;;56.03;24.20;;;;;;;-144.57;100.00;62443.72;4904269;29;20054;-72
2022/12/02 09:39:55;;;;;;;64.18;25.85;;;;;;;-144.57;100.00;62443.72;4936252;29;20039;-75
2022/12/02 09:42:22;;;;;;;62.65;26.40;;;;;;;-144.57;100.00;62443.72;4953111;29;20513;-74
2022/12/02 09:44:48;;;;;;;49.67;22.40;;;;;;;-144.57;100.00;62443.72;4936525;29;20039;-73
2022/12/02 09:47:17;;;;;;;50.90;24.75;;;;;;;-144.57;100.00;62443.72;4920349;29;20051;-78
2022/12/02 09:49:43;;;;;;;59.25;24.92;;;;;;;-144.57;100.00;62443.72;4953597;29;20039;-74
2022/12/02 09:52:23;;;;;;;44.15;22.30;;;;;;;-144.57;100.00;62443.72;4904964;29;20049;-69
2022/12/02 09:54:59;;;;;;;50.08;23.63;;;;;;;-144.57;100.00;62443.72;4937794;29;20047;-74
2022/12/02 09:57:31;;;;;;;53.45;23.08;;;;;;;-144.57;100.00;62443.72;4894287;29;20047;-68
2022/12/02 09:59:58;;;;;;;52.20;19.17;;;;;;;-144.57;100.00;62443.72;4924259;29;20054;-69
2022/12/02 10:02:36;;;;;;;52.08;21.95;;;;;;;-144.57;100.00;62443.72;4936993;29;20051;-73
2022/12/02 10:05:10;;;;;;;59.15;23.98;;;;;;;-144.57;100.00;62443.72;4935928;29;20126;-70
2022/12/02 10:07:36;;;;;;;57.20;23.30;;;;;;;-144.57;100.00;62443.72;4919672;29;20051;-73
2022/12/02 10:10:02;;;;;;;54.75;22.63;;;;;;;-144.57;100.00;62443.72;4919192;29;20047;-70
2022/12/02 10:12:29;;;;;;;50.72;23.02;;;;;;;-144.57;100.00;62443.72;4922624;29;20456;-70
2022/12/02 10:14:56;;;;;;;58.88;23.35;;;;;;;-144.57;100.00;62443.72;4903391;29;20043;-70
2022/12/02 10:17:22;;;;;;;47.25;22.73;;;;;;;-144.57;100.00;62443.72;4935654;29;20047;-71
2022/12/02 10:19:48;;;;;;;50.83;21.65;;;;;;;-144.57;100.00;62443.72;4921669;29;20126;-70
2022/12/02 10:22:16;;;;;;;45.72;21.48;;;;;;;-144.57;100.00;62443.72;4920270;29;20047;-70
2022/12/02 10:24:42;;;;;;;45.95;21.33;;;;;;;-144.57;100.00;62443.72;4935288;29;20394;-69
2022/12/02 10:27:28;;;;;;;46.40;22.23;;;;;;;-144.57;100.00;62443.72;4920181;29;20106;-71
2022/12/02 10:30:18;;;;;;;44.22;19.80;;;;;;;-144.57;100.00;62443.72;4936249;29;20047;-71
2022/12/02 10:32:57;;;;;;;47.63;21.30;;;;;;;-144.57;100.00;62443.72;4935494;29;20592;-71
2022/12/02 10:35:23;;;;;;;36.20;18.73;;;;;;;-144.57;100.00;62443.72;4937014;29;20512;-71
2022/12/02 10:37:48;;;;;;;53.90;19.08;;;;;;;-144.57;100.00;62443.72;4935321;29;20055;-71
2022/12/02 10:40:15;;;;;;;49.03;18.70;;;;;;;-144.57;100.00;62443.72;4920331;29;20035;-71
2022/12/02 10:42:42;;;;;;;43.55;19.95;;;;;;;-144.57;100.00;62443.72;4920401;29;20110;-68
2022/12/02 10:45:09;;;;;;;43.83;21.08;;;;;;;-144.57;100.00;62443.72;4936095;29;20103;-68
2022/12/02 10:47:35;;;;;;;44.08;20.75;;;;;;;-144.57;100.00;62443.72;4936192;29;20079;-69
2022/12/02 10:50:21;;;;;;;46.58;20.42;;;;;;;-144.57;100.00;62443.72;4921947;29;20039;-69
2022/12/02 10:52:54;;;;;;;41.80;18.98;;;;;;;-144.57;100.00;62443.72;4922908;29;20057;-69
2022/12/02 10:55:21;;;;;;;44.05;19.80;;;;;;;-144.57;100.00;62443.72;4955286;29;20508;-71
2022/12/02 10:57:47;;;;;;;46.55;20.13;;;;;;;-144.57;100.00;62443.72;4935131;29;20051;-70
2022/12/02 11:00:15;;;;;;;43.80;18.45;;;;;;;-144.57;100.00;62443.72;4919574;29;20046;-70
2022/12/02 11:02:47;;;;;;;38.58;19.88;;;;;;;-144.57;100.00;62443.72;4935354;29;20449;-68
2022/12/02 11:05:18;;;;;;;45.13;20.65;;;;;;;-144.57;100.00;62443.72;4921004;29;20133;-71
2022/12/02 11:08:00;;;;;;;43.33;20.33;;;;;;;-144.57;100.00;62443.72;4956086;29;20467;-69